LYBE/BEG METAR and TAF weather

Enter ICAO airport designator
Station Type Date Time Source
LYBE METAR 2019/12/05 23:00 UTC NOAA

LYBE 052300Z 28003KT 250V320 6000 OVC007 00/M01 Q1028 NOSIG


Station Type Date Time Source
LYBE Decoded METAR 2019/12/05 23:00 UTC NOAA

Beograd / Surcin, Serbia and Montenegro (LYBE) 44-49N 020-17E 99M
Dec 05, 2019 - 06:00 PM EST / 2019.12.05 2300 UTC
Wind: from the W (280 degrees) at 3 MPH (3 KT) (direction variable):0
Visibility: 3 mile(s):0
Sky conditions: overcast
Temperature: 32 F (0 C)
Dew Point: 30 F (-1 C)
Relative Humidity: 92%
Pressure (altimeter): 30.36 in. Hg (1028 hPa)
ob: LYBE 052300Z 28003KT 250V320 6000 OVC007 00/M01 Q1028 NOSIG
cycle: 23

Station Type Date Time Source
LYBE TAF 2019/12/05 18:22 UTC NOAA

TAF LYBE 051700Z 0518/0618 24005KT 5000 BR OVC007 TX05/0613Z TNM03/0605Z
BECMG 0519/0521 1500 OVC004
BECMG 0522/0524 0300 FZFG VV002
BECMG 0612/0614 5000 BR SCT010

Example: see airport list